Avoca, AR

6:16 AM CST on January 25, 2015 (GMT -0600)
Prairie Creek | Change Station
CLOSE
Current Station
Personal Weather Station
Location: Rogers, AR
Elevation: 1306 ft
Nearby Weather Stations

Elev 1306 ft 36.34 °N, 94.04 °W | Updated 29 seconds ago

Rain
Rain
44.2 °F
Feels Like 41 °F
N
5.4
Wind Variable Wind from West
Gusts 8.3 mph

Today
High -- | Low -- °F
--% Chance of Precip.
Yesterday
High -- | Low -- °F
Precip. -- in
7:22 AM 5:34 PM
Waxing Crescent, 31% visible
Pressure 29.74 in
Visibility 10.0 miles
Clouds Mostly Cloudy 4400 ft
Mostly Cloudy 5500 ft
Mostly Cloudy 10000 ft
Windchill 41 °F
Dew Point 39 °F
Humidity 81%
Rainfall 0.02 in
Snow Depth Not available.
UV 0 out of 12
Pollen 1.30 out of 12
Air Quality Not available.
Flu Activity Not available.
METAR KROG 251157Z AUTO 26007KT 10SM BKN044 BKN055 BKN100 07/03 A2973 RMK AO2 RAE49 SLP069 P0000 60001 70001 T00670033 10094 20067 56009

More Conditions Fewer Conditions

Pressure 29.74 in
Visibility 10.0 miles
Clouds Mostly Cloudy 4400 ft
Mostly Cloudy 5500 ft
Mostly Cloudy 10000 ft
Windchill 41 °F
Dew Point 39 °F
Humidity 81%
Rainfall 0.02 in
Snow Depth Not available.
UV 0 out of 12
Pollen 1.30 out of 12
Air Quality Not available.
Flu Activity Not available.
METAR KROG 251157Z AUTO 26007KT 10SM BKN044 BKN055 BKN100 07/03 A2973 RMK AO2 RAE49 SLP069 P0000 60001 70001 T00670033 10094 20067 56009

More Conditions Fewer Conditions

Nowcast | as of 5:32 am CST on January 25, 2015

At 530 am...National Weather Service Doppler radar continued to show patches of light rain and drizzle across far eastern Oklahoma and western Arkansas...mainly east of a Rogers Arkansas to Sallisaw line. Movement was to the east-southeast at 45 mph. Through 7 am...patches of light rain and drizzle will continue mainly across western Arkansas.

×

10-Day Weather Forecast

Almanac

Astronomy

Jan. 25, 2015 Rise Set
Actual Time
Civil Twilight
Nautical Twilight
Astronomical Twilight
Moon
Length of Visible Light
Length of Day
Tomorrow will be .
, % of the Moon is Illuminated

Today's Extremes

State Highs State Lows

Community

WunderPhotos

Upload Photos

1,789,873 photos uploaded!

WunderBlogs® & News

Nearby

Air Quality

  Air Quality AQ Index Pollutant
Not available.

Snow Depth

Station Depth Elevation

Earthquake Activity

City Distance Mag. Time & Date
Minimum magnitude displayed is 2.5.

Coastal Water Temperatures

Place Temperature

Nearby Weather Stations